createdAt,value
2023-03-26T00:02:04.714Z,73.23
2023-03-26T00:04:33.807Z,74.97
2023-03-26T00:07:01.968Z,76.67
2023-03-26T00:09:31.469Z,76.40
2023-03-26T00:11:59.548Z,78.00
2023-03-26T00:14:29.197Z,78.63
2023-03-26T00:16:57.534Z,80.67
2023-03-26T00:19:25.632Z,79.60
2023-03-26T00:21:53.721Z,78.57
2023-03-26T00:24:21.874Z,80.00
2023-03-26T00:26:53.595Z,82.20
2023-03-26T00:29:23.070Z,81.50
2023-03-26T00:31:51.459Z,83.20
2023-03-26T00:34:19.611Z,88.40
2023-03-26T00:36:47.968Z,87.33
2023-03-26T00:39:17.857Z,87.07
2023-03-26T00:41:46.185Z,89.70
2023-03-26T00:44:15.596Z,92.20
2023-03-26T00:46:43.771Z,92.47
2023-03-26T00:49:14.875Z,96.17
2023-03-26T00:51:43.234Z,92.67
2023-03-26T00:54:11.893Z,92.50
2023-03-26T00:56:40.136Z,94.83
2023-03-26T00:59:09.251Z,98.70
2023-03-26T01:01:39.781Z,99.67
2023-03-26T01:04:30.605Z,100.73
2023-03-26T01:07:02.726Z,101.37
2023-03-26T01:09:35.777Z,102.07
2023-03-26T01:12:06.733Z,100.20
2023-03-26T01:14:34.940Z,103.23
2023-03-26T01:17:07.827Z,99.93
2023-03-26T01:19:44.722Z,102.30
2023-03-26T01:22:16.512Z,103.07
2023-03-26T01:24:52.796Z,101.57
2023-03-26T01:27:30.049Z,100.90
2023-03-26T01:30:06.131Z,98.77
2023-03-26T01:32:47.736Z,102.20
2023-03-26T01:35:28.628Z,101.77
2023-03-26T01:38:11.044Z,98.00
2023-03-26T01:40:46.882Z,98.10
2023-03-26T01:43:25.546Z,99.80
2023-03-26T01:45:54.862Z,97.40
2023-03-26T01:48:30.635Z,97.07
2023-03-26T01:50:58.863Z,97.50
2023-03-26T01:53:27.818Z,94.33
2023-03-26T01:56:05.097Z,90.30
2023-03-26T01:58:39.178Z,89.57
2023-03-26T02:01:24.449Z,89.80
2023-03-26T02:03:59.847Z,90.10
2023-03-26T02:06:34.370Z,86.63
2023-03-26T02:09:05.761Z,83.50
2023-03-26T02:11:36.576Z,82.13
2023-03-26T02:14:05.335Z,80.63
2023-03-26T02:16:33.471Z,79.10
2023-03-26T02:19:01.808Z,79.33
2023-03-26T02:21:34.040Z,81.30
2023-03-26T02:24:04.081Z,79.50
2023-03-26T02:26:34.220Z,78.30
2023-03-26T02:29:03.784Z,78.73
2023-03-26T02:31:31.934Z,79.27
2023-03-26T02:34:00.380Z,76.97
2023-03-26T02:36:28.701Z,76.43
2023-03-26T02:38:58.124Z,75.77
2023-03-26T02:41:26.430Z,78.27
2023-03-26T02:43:54.555Z,77.63
2023-03-26T02:46:24.030Z,81.83
2023-03-26T02:48:52.179Z,77.43
2023-03-26T02:51:20.286Z,76.93
2023-03-26T02:53:48.512Z,77.30
2023-03-26T02:56:16.581Z,77.33
2023-03-26T02:58:44.622Z,75.07
2023-03-26T03:01:13.132Z,74.80
2023-03-26T03:03:42.674Z,74.13
2023-03-26T03:06:10.874Z,71.47
2023-03-26T03:08:38.921Z,72.23
2023-03-26T03:11:10.920Z,75.57
2023-03-26T03:13:39.145Z,70.40
2023-03-26T03:16:07.880Z,69.57
2023-03-26T03:18:36.429Z,67.60
2023-03-26T03:21:07.174Z,69.43
2023-03-26T03:23:35.615Z,71.70
2023-03-26T03:26:03.777Z,71.30
2023-03-26T03:28:31.875Z,73.40
2023-03-26T03:30:59.993Z,73.20
2023-03-26T03:33:28.846Z,76.17
2023-03-26T03:35:57.172Z,73.57
2023-03-26T03:38:26.908Z,72.43
2023-03-26T03:40:55.506Z,70.23
2023-03-26T03:43:23.739Z,71.27
2023-03-26T03:45:52.285Z,71.63
2023-03-26T03:48:20.546Z,72.30
2023-03-26T03:50:48.632Z,70.17
2023-03-26T03:53:18.576Z,70.30
2023-03-26T03:55:53.255Z,72.47
2023-03-26T03:58:22.747Z,73.63
2023-03-26T04:00:51.134Z,69.93
2023-03-26T04:03:33.405Z,69.60
2023-03-26T04:06:02.626Z,72.07
2023-03-26T04:08:30.764Z,72.60
2023-03-26T04:11:00.383Z,67.60
2023-03-26T04:13:28.697Z,66.50
2023-03-26T04:15:57.396Z,70.63
2023-03-26T04:18:26.369Z,70.90
2023-03-26T04:20:55.825Z,74.23
2023-03-26T04:23:24.463Z,73.63
2023-03-26T04:25:55.195Z,72.80
2023-03-26T04:28:30.461Z,72.30
2023-03-26T04:31:02.063Z,68.50
2023-03-26T04:33:32.393Z,67.33
2023-03-26T04:36:03.071Z,64.70
2023-03-26T04:38:35.605Z,68.13
2023-03-26T04:41:07.583Z,67.83
2023-03-26T04:43:37.110Z,67.43
2023-03-26T04:46:05.329Z,67.73
2023-03-26T04:48:33.648Z,67.90
2023-03-26T04:51:02.059Z,65.23
2023-03-26T04:53:30.172Z,65.37
2023-03-26T04:56:02.455Z,62.20
2023-03-26T04:58:33.052Z,63.87
2023-03-26T05:01:10.498Z,65.30
2023-03-26T05:03:39.233Z,63.87
2023-03-26T05:06:08.038Z,59.87
2023-03-26T05:08:36.242Z,60.50
2023-03-26T05:11:07.429Z,61.67
2023-03-26T05:13:35.566Z,61.27
2023-03-26T05:16:05.551Z,59.67
2023-03-26T05:18:33.928Z,59.97
2023-03-26T05:21:02.233Z,60.47
2023-03-26T05:23:30.543Z,63.40
2023-03-26T05:25:58.650Z,65.73
2023-03-26T05:28:28.260Z,67.30
2023-03-26T05:30:56.779Z,69.70
2023-03-26T05:33:26.855Z,70.40
2023-03-26T05:36:02.896Z,69.50
2023-03-26T05:38:31.821Z,67.33
2023-03-26T05:41:00.668Z,69.77
2023-03-26T05:43:29.125Z,71.27
2023-03-26T05:45:57.302Z,68.03
2023-03-26T05:48:27.490Z,64.20
2023-03-26T05:50:57.457Z,62.80
2023-03-26T05:53:27.661Z,61.93
2023-03-26T05:55:57.993Z,69.20
2023-03-26T05:58:27.200Z,68.80
2023-03-26T06:01:00.035Z,68.00
2023-03-26T06:03:29.909Z,67.70
2023-03-26T06:05:58.145Z,61.03
2023-03-26T06:08:26.872Z,65.90
2023-03-26T06:11:00.296Z,66.87
2023-03-26T06:13:28.691Z,67.37
2023-03-26T06:15:57.893Z,65.47
2023-03-26T06:18:26.683Z,63.97
2023-03-26T06:20:56.436Z,63.30
2023-03-26T06:23:24.736Z,66.47
2023-03-26T06:25:52.964Z,64.43
2023-03-26T06:28:21.174Z,71.63
2023-03-26T06:30:50.177Z,71.57
2023-03-26T06:33:18.531Z,69.10
2023-03-26T06:35:47.594Z,67.20
2023-03-26T06:38:18.139Z,64.33
2023-03-26T06:40:46.935Z,65.43
2023-03-26T06:43:15.862Z,64.07
2023-03-26T06:45:45.381Z,65.40
2023-03-26T06:48:14.263Z,59.03
2023-03-26T06:50:43.511Z,59.30
2023-03-26T06:53:13.418Z,59.63
2023-03-26T06:55:43.040Z,61.57
2023-03-26T06:58:12.686Z,64.10
2023-03-26T07:00:40.893Z,66.37
2023-03-26T07:03:11.348Z,61.30
2023-03-26T07:05:39.840Z,61.17
2023-03-26T07:08:08.015Z,61.10
2023-03-26T07:10:36.194Z,62.13
2023-03-26T07:13:05.798Z,60.30
2023-03-26T07:15:34.042Z,59.00
2023-03-26T07:18:02.155Z,58.10
2023-03-26T07:20:30.956Z,55.37
2023-03-26T07:22:59.666Z,51.23
2023-03-26T07:25:28.438Z,52.33
2023-03-26T07:28:06.661Z,50.57
2023-03-26T07:30:47.577Z,52.67
2023-03-26T07:33:22.355Z,51.27
2023-03-26T07:35:57.859Z,53.10
2023-03-26T07:38:42.118Z,51.53
2023-03-26T07:41:17.075Z,49.40
2023-03-26T07:43:59.189Z,49.73
2023-03-26T07:46:34.047Z,49.60
2023-03-26T07:49:04.627Z,47.87
2023-03-26T07:51:33.376Z,47.73
2023-03-26T07:54:04.259Z,46.50
2023-03-26T07:56:38.116Z,46.20
2023-03-26T07:59:21.390Z,43.97
2023-03-26T08:02:05.831Z,43.27
2023-03-26T08:04:47.900Z,44.00
2023-03-26T08:07:22.457Z,42.90
2023-03-26T08:10:03.017Z,42.40
2023-03-26T08:12:40.818Z,42.43
2023-03-26T08:15:16.799Z,43.47
2023-03-26T08:17:53.371Z,46.50
2023-03-26T08:20:32.082Z,44.10
2023-03-26T08:23:09.371Z,42.00
2023-03-26T08:25:49.839Z,44.40
2023-03-26T08:28:30.197Z,46.23
2023-03-26T08:30:58.777Z,44.67
2023-03-26T08:33:29.304Z,47.50
2023-03-26T08:35:57.885Z,45.93
2023-03-26T08:38:26.305Z,47.40
2023-03-26T08:41:39.176Z,46.90
2023-03-26T08:44:55.967Z,46.17
2023-03-26T08:47:47.715Z,50.13
2023-03-26T08:50:38.122Z,55.60
2023-03-26T08:53:45.076Z,58.20
2023-03-26T08:56:20.664Z,61.83
2023-03-26T08:59:13.659Z,57.10
2023-03-26T09:02:25.057Z,60.60
2023-03-26T09:05:22.395Z,53.93
2023-03-26T09:08:24.081Z,59.03
2023-03-26T09:11:17.896Z,59.13
2023-03-26T09:14:27.350Z,61.90
2023-03-26T09:17:38.125Z,61.13
2023-03-26T09:20:43.012Z,61.10
2023-03-26T09:23:26.037Z,69.37
2023-03-26T09:26:17.095Z,62.70
2023-03-26T09:29:18.252Z,62.00
2023-03-26T09:32:10.789Z,64.07
2023-03-26T09:35:03.526Z,61.80
2023-03-26T09:37:57.296Z,66.27
2023-03-26T09:40:38.236Z,64.10
2023-03-26T09:43:38.882Z,65.10
2023-03-26T09:46:23.706Z,59.67
2023-03-26T09:49:26.228Z,56.13
2023-03-26T09:52:15.837Z,58.70
2023-03-26T09:54:53.738Z,59.33
2023-03-26T09:57:36.623Z,59.70
2023-03-26T10:00:29.654Z,59.53
2023-03-26T10:03:26.413Z,54.30
2023-03-26T10:06:04.435Z,53.23
2023-03-26T10:08:41.308Z,52.13
2023-03-26T10:11:19.693Z,55.73
2023-03-26T10:14:06.353Z,56.70
2023-03-26T10:16:45.992Z,58.40
2023-03-26T10:19:37.739Z,52.40
2023-03-26T10:22:20.532Z,56.73
2023-03-26T10:25:13.600Z,57.73
2023-03-26T10:27:55.526Z,60.27
2023-03-26T10:30:54.213Z,60.53
2023-03-26T10:33:31.922Z,54.87
2023-03-26T10:36:26.797Z,59.07
2023-03-26T10:39:36.371Z,62.93
2023-03-26T10:42:21.776Z,66.37
2023-03-26T10:45:06.389Z,61.13
2023-03-26T10:47:50.915Z,54.97
2023-03-26T10:50:36.476Z,55.23
2023-03-26T10:53:05.715Z,61.20
2023-03-26T10:55:38.317Z,55.53
2023-03-26T10:58:14.282Z,59.23
2023-03-26T11:00:48.017Z,57.80
2023-03-26T11:03:52.209Z,58.47
2023-03-26T11:06:31.825Z,55.00
2023-03-26T11:09:10.029Z,57.47
2023-03-26T11:11:46.156Z,56.40
2023-03-26T11:14:33.749Z,56.13
2023-03-26T11:17:15.285Z,50.10
2023-03-26T11:20:06.264Z,50.20
2023-03-26T11:22:45.050Z,50.20
2023-03-26T11:25:33.920Z,47.80
2023-03-26T11:28:12.988Z,47.60
2023-03-26T11:30:49.502Z,51.43
2023-03-26T11:33:23.847Z,46.17
2023-03-26T11:35:57.833Z,46.23
2023-03-26T11:38:32.881Z,43.50
2023-03-26T11:41:03.419Z,45.60
2023-03-26T11:43:36.551Z,45.27
2023-03-26T11:46:09.327Z,46.00
2023-03-26T11:48:41.887Z,43.67
2023-03-26T11:51:19.281Z,41.60
2023-03-26T11:53:47.617Z,43.13
2023-03-26T11:56:23.627Z,43.50
2023-03-26T11:58:55.590Z,47.47
2023-03-26T12:01:30.358Z,47.20
2023-03-26T12:04:04.111Z,47.70
2023-03-26T12:06:34.524Z,47.10
2023-03-26T12:09:03.939Z,47.90
2023-03-26T12:11:35.475Z,45.80
2023-03-26T12:14:06.034Z,48.17
2023-03-26T12:16:36.046Z,49.40
2023-03-26T12:19:07.357Z,52.20
2023-03-26T12:21:47.825Z,52.70
2023-03-26T12:24:31.885Z,51.30
2023-03-26T12:27:02.210Z,49.77
2023-03-26T12:29:34.115Z,48.70
2023-03-26T12:32:08.290Z,48.23
2023-03-26T12:34:39.518Z,49.57
2023-03-26T12:37:32.423Z,51.00
2023-03-26T12:40:14.303Z,46.37
2023-03-26T12:44:44.405Z,44.93
2023-03-26T12:45:34.546Z,44.17
2023-03-26T12:48:04.921Z,45.83
2023-03-26T12:50:48.289Z,41.07
2023-03-26T12:53:39.814Z,41.30
2023-03-26T12:56:19.828Z,40.83
2023-03-26T12:59:11.826Z,43.50
2023-03-26T13:01:53.660Z,42.97
2023-03-26T13:05:06.036Z,44.37
2023-03-26T13:07:50.855Z,40.83
2023-03-26T13:10:38.997Z,40.60
2023-03-26T13:13:25.641Z,43.60
2023-03-26T13:15:55.238Z,43.60
2023-03-26T13:18:35.645Z,47.87
2023-03-26T13:21:11.631Z,44.77
2023-03-26T13:23:49.382Z,44.93
2023-03-26T13:26:31.396Z,42.87
2023-03-26T13:29:06.909Z,38.23
2023-03-26T13:31:41.899Z,37.97
2023-03-26T13:34:19.553Z,36.50
2023-03-26T13:37:01.203Z,32.97
2023-03-26T13:39:34.923Z,27.97
2023-03-26T13:42:22.248Z,24.87
2023-03-26T13:45:04.607Z,27.27
2023-03-26T13:47:39.180Z,23.63
2023-03-26T13:50:16.502Z,22.20
2023-03-26T13:52:51.616Z,21.33
2023-03-26T13:55:29.373Z,19.80
2023-03-26T13:58:04.937Z,19.53
2023-03-26T14:00:48.029Z,19.90
2023-03-26T14:03:22.737Z,19.27
2023-03-26T14:05:54.394Z,19.47
2023-03-26T14:08:27.331Z,19.57
2023-03-26T14:11:02.206Z,19.70
2023-03-26T14:13:37.192Z,19.63
2023-03-26T14:16:13.695Z,19.60
2023-03-26T14:18:48.019Z,19.37
2023-03-26T14:21:41.420Z,18.73
2023-03-26T14:24:52.042Z,19.63
2023-03-26T14:27:39.275Z,18.30
2023-03-26T14:30:49.250Z,18.20
2023-03-26T14:33:48.805Z,19.00
2023-03-26T14:36:31.394Z,17.50
2023-03-26T14:39:13.933Z,17.90
2023-03-26T14:41:48.998Z,19.93
2023-03-26T14:45:01.458Z,19.50
2023-03-26T14:47:32.160Z,18.03
2023-03-26T14:50:35.950Z,17.80
2023-03-26T14:53:13.126Z,17.37
2023-03-26T14:56:04.203Z,17.80
2023-03-26T14:58:59.521Z,17.27
2023-03-26T15:01:28.836Z,19.43
2023-03-26T15:04:29.433Z,17.23
2023-03-26T15:07:33.606Z,17.23
2023-03-26T15:10:38.504Z,17.33
2023-03-26T15:13:24.501Z,17.30
2023-03-26T15:16:12.675Z,17.00
2023-03-26T15:19:23.373Z,16.90
2023-03-26T15:22:26.025Z,17.10
2023-03-26T15:25:36.438Z,16.40
2023-03-26T15:28:42.828Z,16.50
2023-03-26T15:31:31.044Z,18.13
2023-03-26T15:34:44.070Z,17.10
2023-03-26T15:37:49.206Z,17.33
2023-03-26T15:40:36.238Z,17.00
2023-03-26T15:43:11.557Z,18.80
2023-03-26T15:45:42.798Z,16.83
2023-03-26T15:48:35.434Z,17.00
2023-03-26T15:51:17.422Z,17.10
2023-03-26T15:53:54.637Z,19.27
2023-03-26T15:56:35.299Z,19.77
2023-03-26T15:59:16.269Z,19.57
2023-03-26T16:02:02.463Z,19.23
2023-03-26T16:04:50.394Z,17.33
2023-03-26T16:07:50.378Z,17.03
2023-03-26T16:10:35.779Z,16.80
2023-03-26T16:13:31.862Z,17.13
2023-03-26T16:16:23.803Z,16.13
2023-03-26T16:18:59.596Z,16.70
2023-03-26T16:21:42.906Z,16.37
2023-03-26T16:24:23.393Z,16.70
2023-03-26T16:27:23.619Z,16.57
2023-03-26T16:30:15.367Z,16.20
2023-03-26T16:32:46.680Z,16.87
2023-03-26T16:35:41.596Z,16.60
2023-03-26T16:38:16.150Z,16.67
2023-03-26T16:41:02.518Z,18.33
2023-03-26T16:44:06.425Z,17.87
2023-03-26T16:46:44.655Z,16.87
2023-03-26T16:49:28.249Z,16.57
2023-03-26T16:52:16.094Z,16.50
2023-03-26T16:54:51.473Z,16.20
2023-03-26T16:57:28.087Z,16.10
2023-03-26T17:00:27.488Z,20.80
2023-03-26T17:03:03.715Z,17.30
2023-03-26T17:05:37.784Z,16.20
2023-03-26T17:08:17.863Z,16.23
2023-03-26T17:11:10.204Z,16.53
2023-03-26T17:13:48.468Z,16.10
2023-03-26T17:16:23.656Z,16.50
2023-03-26T17:19:00.619Z,17.23
2023-03-26T17:21:45.833Z,16.53
2023-03-26T17:24:27.179Z,17.17
2023-03-26T17:27:02.116Z,16.60
2023-03-26T17:29:42.821Z,16.87
2023-03-26T17:32:15.082Z,15.73
2023-03-26T17:35:03.778Z,16.37
2023-03-26T17:37:47.833Z,15.30
2023-03-26T17:40:50.994Z,15.73
2023-03-26T17:43:44.843Z,15.23
2023-03-26T17:46:28.755Z,15.13
2023-03-26T17:49:04.432Z,15.10
2023-03-26T17:51:41.025Z,15.20
2023-03-26T17:54:19.369Z,15.47
2023-03-26T17:56:48.833Z,15.53
2023-03-26T17:59:23.344Z,16.00
2023-03-26T18:01:55.771Z,16.07
2023-03-26T18:04:32.270Z,16.10
2023-03-26T18:07:31.032Z,17.83
2023-03-26T18:10:24.533Z,17.77
2023-03-26T18:13:12.140Z,17.17
2023-03-26T18:15:51.569Z,16.40
2023-03-26T18:18:23.388Z,16.80
2023-03-26T18:20:54.612Z,16.30
2023-03-26T18:23:27.224Z,17.20
2023-03-26T18:25:58.953Z,17.30
2023-03-26T18:28:32.046Z,19.13
2023-03-26T18:31:10.240Z,17.17
2023-03-26T18:33:45.787Z,17.30
2023-03-26T18:36:18.548Z,17.23
2023-03-26T18:38:48.991Z,17.10
2023-03-26T18:41:32.240Z,17.20
2023-03-26T18:44:03.035Z,17.30
2023-03-26T18:46:32.672Z,17.00
2023-03-26T18:49:03.083Z,17.10
2023-03-26T18:51:38.338Z,18.67
2023-03-26T18:54:17.700Z,18.90
2023-03-26T18:56:49.029Z,17.40
2023-03-26T18:59:30.817Z,17.47
2023-03-26T19:01:59.870Z,17.63
2023-03-26T19:04:31.482Z,17.30
2023-03-26T19:07:01.601Z,17.60
2023-03-26T19:09:32.389Z,17.20
2023-03-26T19:12:07.043Z,17.17
2023-03-26T19:14:37.023Z,17.00
2023-03-26T19:17:07.922Z,17.63
2023-03-26T19:19:38.626Z,17.17
2023-03-26T19:22:10.569Z,17.47
2023-03-26T19:24:39.410Z,17.70
2023-03-26T19:27:07.954Z,18.40
2023-03-26T19:29:37.262Z,17.90
2023-03-26T19:32:07.434Z,17.27
2023-03-26T19:34:39.305Z,17.37
2023-03-26T19:37:21.362Z,17.60
2023-03-26T19:39:51.753Z,17.50
2023-03-26T19:42:23.298Z,17.85
2023-03-26T19:44:52.568Z,17.10
2023-03-26T19:47:31.936Z,16.83
2023-03-26T19:50:25.499Z,16.93
2023-03-26T19:53:16.869Z,17.73
2023-03-26T19:55:55.648Z,17.33
2023-03-26T19:58:24.027Z,17.07
2023-03-26T20:00:52.194Z,17.23
2023-03-26T20:03:26.665Z,16.90
2023-03-26T20:05:55.025Z,16.73
2023-03-26T20:08:27.104Z,16.73
2023-03-26T20:10:56.974Z,16.60
2023-03-26T20:13:25.447Z,16.87
2023-03-26T20:16:05.388Z,17.83
2023-03-26T20:18:34.534Z,16.87
2023-03-26T20:21:03.053Z,16.93
2023-03-26T20:23:32.690Z,17.27
2023-03-26T20:26:00.979Z,17.43
2023-03-26T20:28:30.379Z,17.30
2023-03-26T20:30:58.838Z,17.43
2023-03-26T20:33:28.015Z,17.67
2023-03-26T20:35:57.752Z,17.90
2023-03-26T20:38:38.969Z,17.33
2023-03-26T20:41:13.025Z,18.07
2023-03-26T20:43:41.256Z,17.70
2023-03-26T20:46:14.748Z,17.80
2023-03-26T20:48:43.010Z,18.07
2023-03-26T20:51:12.606Z,18.00
2023-03-26T20:53:41.636Z,18.10
2023-03-26T20:56:15.524Z,18.50
2023-03-26T20:58:44.097Z,18.30
2023-03-26T21:01:13.554Z,18.67
2023-03-26T21:03:42.636Z,17.90
2023-03-26T21:06:14.293Z,18.40
2023-03-26T21:08:44.133Z,18.10
2023-03-26T21:11:26.564Z,18.87
2023-03-26T21:14:02.090Z,19.93
2023-03-26T21:16:30.760Z,19.30
2023-03-26T21:18:59.544Z,18.63
2023-03-26T21:21:40.699Z,18.90
2023-03-26T21:24:14.539Z,18.83
2023-03-26T21:26:50.722Z,19.00
2023-03-26T21:29:19.385Z,18.60
2023-03-26T21:31:48.185Z,18.73
2023-03-26T21:34:17.128Z,19.47
2023-03-26T21:36:46.603Z,20.30
2023-03-26T21:39:16.496Z,19.93
2023-03-26T21:41:48.480Z,20.63
2023-03-26T21:44:34.246Z,20.10
2023-03-26T21:47:02.927Z,19.50
2023-03-26T21:49:31.632Z,19.70
2023-03-26T21:52:00.310Z,20.50
2023-03-26T21:54:30.819Z,20.43
2023-03-26T21:57:30.604Z,21.10
2023-03-26T22:00:14.800Z,21.23
2023-03-26T22:03:00.136Z,20.60
2023-03-26T22:05:36.693Z,21.97
2023-03-26T22:08:07.059Z,22.37
2023-03-26T22:10:35.535Z,22.80
2023-03-26T22:13:05.053Z,23.30
2023-03-26T22:15:33.831Z,23.57
2023-03-26T22:18:02.848Z,24.77
2023-03-26T22:20:31.081Z,24.47
2023-03-26T22:23:00.562Z,25.53
2023-03-26T22:25:28.753Z,25.93
2023-03-26T22:27:57.624Z,27.77
2023-03-26T22:30:27.380Z,28.90
2023-03-26T22:32:56.968Z,28.23
2023-03-26T22:35:26.131Z,27.97
2023-03-26T22:38:00.964Z,27.40
2023-03-26T22:40:29.703Z,28.07
2023-03-26T22:42:57.907Z,27.13
2023-03-26T22:45:27.989Z,26.77
2023-03-26T22:48:03.569Z,27.20
2023-03-26T22:50:33.094Z,26.90
2023-03-26T22:53:01.705Z,27.40
2023-03-26T22:55:30.201Z,26.93
2023-03-26T22:57:58.557Z,27.87
2023-03-26T23:00:28.171Z,29.00
2023-03-26T23:03:00.232Z,28.63
2023-03-26T23:05:29.400Z,28.67
2023-03-26T23:07:58.233Z,28.83
2023-03-26T23:10:26.464Z,29.63
2023-03-26T23:12:54.709Z,34.23
2023-03-26T23:15:22.894Z,32.17
2023-03-26T23:17:54.168Z,32.50
2023-03-26T23:20:23.272Z,32.30
2023-03-26T23:22:52.527Z,31.60
2023-03-26T23:25:21.091Z,32.53
2023-03-26T23:27:50.639Z,33.83
2023-03-26T23:30:19.297Z,33.70
2023-03-26T23:32:47.575Z,34.47
2023-03-26T23:35:17.392Z,37.33
2023-03-26T23:37:45.697Z,38.40
2023-03-26T23:40:14.389Z,42.17
2023-03-26T23:42:42.808Z,45.50
2023-03-26T23:45:12.362Z,46.30
2023-03-26T23:47:42.249Z,50.40
2023-03-26T23:50:13.077Z,50.40
2023-03-26T23:52:45.828Z,52.00
2023-03-26T23:55:14.040Z,54.20
2023-03-26T23:57:43.190Z,55.60
